Latest Weather Observations for Lombadina

IDW60801

Issued at 6:35 am WST Sunday 26 October 2014 (issued every 30 minutes, with the page automatically refreshed every 10 minutes)

About weather observations | Map of weather stations | Latest weather observations for WA | Other Formats
Station Details ID: 503016 Name: LOMBADINA AIRSTRIP Lat: -16.52 Lon: 122.92 Height: 42.0 m
Data from the previous 72 hours. | See also: Recent months for locations in Western Australia
Date/Time
WST
Temp
°C
App
Temp
°C
Dew
Point
Rel
Hum
%
Delta-T
°C
Wind Press
QNH
hPa
Press
MSL
hPa
Rain
since 9 am
mm
Dir
 
Spd
km/h
Gust
km/h
Spd
kts
Gust
kts
26/06:30am 27.3 32.3 23.8 81 2.4 NNE 4 7 2 4 1013.7 1013.4 0.0
26/06:00am 26.2 31.7 24.1 88 1.4 ENE 2 6 1 3 1013.5 1013.2 0.0
26/05:30am 25.3 29.7 23.5 90 1.2 E 6 7 3 4 1013.4 1013.1 0.0
26/05:00am 25.1 29.6 23.7 92 1.0 ESE 6 7 3 4 1013.1 1012.8 0.0
26/04:30am 24.8 30.2 23.2 91 1.1 CALM 0 2 0 1 1012.4 1012.1 0.0
26/04:00am 25.1 30.6 23.4 90 1.2 CALM 0 4 0 2 1011.8 1011.5 0.0
26/03:30am 26.2 31.4 23.6 85 1.8 NW 2 6 1 3 1011.4 1011.1 0.0
26/03:00am 26.2 30.4 23.4 84 1.9 W 7 15 4 8 1010.8 1010.5 0.0
26/02:30am 26.3 30.3 23.7 85 1.8 W 9 15 5 8 1010.6 1010.3 0.0
26/02:00am 26.4 29.5 23.6 84 1.9 W 13 24 7 13 1010.6 1010.3 0.0
26/01:30am 26.3 29.9 23.7 85 1.8 W 11 20 6 11 1010.8 1010.5 0.0
26/01:00am 26.4 29.6 23.7 85 1.9 W 13 22 7 12 1011.0 1010.7 0.0
26/12:30am 26.5 29.3 23.7 84 1.9 W 15 28 8 15 1011.4 1011.1 0.0
26/12:00am 26.6 29.9 23.8 84 1.9 W 13 26 7 14 1011.9 1011.6 0.0
 
Date/Time
WST
Temp
°C
App
Temp
°C
Dew
Point
Rel
Hum
%
Delta-T
°C
Wind Press
QNH
hPa
Press
MSL
hPa
Rain
since 9 am
mm
Dir
 
Spd
km/h
Gust
km/h
Spd
kts
Gust
kts
25/11:30pm 26.5 29.9 24.0 86 1.7 W 13 24 7 13 1012.1 1011.8 0.0
25/11:00pm 26.7 30.0 23.9 84 1.9 W 13 26 7 14 1012.6 1012.3 0.0
25/10:30pm 26.7 30.0 23.9 84 1.9 W 13 22 7 12 1012.8 1012.5 0.0
25/10:00pm 26.9 30.2 23.8 83 2.1 W 13 28 7 15 1013.3 1013.0 0.0
25/09:30pm 26.9 30.2 23.9 83 2.1 W 13 22 7 12 1013.4 1013.1 0.0
25/09:00pm 27.0 30.2 23.7 82 2.3 W 13 24 7 13 1013.2 1012.9 0.0
25/08:30pm 27.0 30.2 23.7 82 2.3 W 13 20 7 11 1013.3 1013.0 0.0
25/08:00pm 27.1 30.6 23.5 81 2.5 W 11 24 6 13 1013.2 1012.9 0.0
25/07:30pm 27.1 30.2 23.6 81 2.4 W 13 24 7 13 1013.0 1012.7 0.0
25/07:00pm 27.2 30.1 23.9 82 2.3 W 15 30 8 16 1012.7 1012.4 0.0
25/06:30pm 27.3 30.2 23.9 82 2.3 W 15 30 8 16 1012.7 1012.4 0.0
25/06:00pm 27.4 30.7 23.8 81 2.5 W 13 26 7 14 1012.6 1012.3 0.0
25/05:30pm 27.8 30.7 23.8 79 2.8 W 15 24 8 13 1012.3 1012.0 0.0
25/05:00pm 28.2 31.1 23.8 77 3.0 W 15 28 8 15 1012.0 1011.7 0.0
25/04:30pm 28.9 31.1 23.3 72 3.8 WNW 17 28 9 15 1011.8 1011.5 0.0
25/04:00pm 29.1 30.9 23.2 70 4.0 WNW 19 30 10 16 1011.7 1011.4 0.0
25/03:30pm 29.7 31.5 23.3 68 4.4 WNW 19 33 10 18 1011.7 1011.4 0.0
25/03:00pm 29.9 31.7 23.5 68 4.4 NW 20 32 11 17 1011.9 1011.6 0.0
25/02:30pm 29.7 31.5 23.6 69 4.2 NW 20 32 11 17 1012.1 1011.8 0.0
25/02:00pm 30.1 31.8 23.4 67 4.6 NW 20 30 11 16 1012.7 1012.4 0.0
25/01:30pm 29.3 30.8 23.0 69 4.3 NW 20 30 11 16 1013.0 1012.7 0.0
25/01:00pm 29.2 31.2 22.9 69 4.3 WNW 17 26 9 14 1013.2 1012.9 0.0
25/12:30pm 29.8 31.5 22.3 64 5.1 WNW 17 32 9 17 1013.5 1013.2 0.0
25/12:00pm 30.6 32.6 23.0 64 5.2 WNW 17 28 9 15 1013.8 1013.5 0.0
25/11:30am 29.9 32.2 22.7 65 4.9 WNW 15 24 8 13 1014.5 1014.2 0.0
25/11:00am 30.4 32.0 22.1 61 5.6 NW 17 26 9 14 1014.8 1014.5 0.0
25/10:30am 30.0 32.6 23.3 67 4.6 NW 15 26 8 14 1015.1 1014.8 0.0
25/10:00am 29.8 32.7 23.1 67 4.6 NW 13 20 7 11 1015.5 1015.2 0.0
25/09:30am 30.2 33.7 22.9 65 5.0 WNW 9 20 5 11 1015.5 1015.2 0.0
25/09:00am 29.2 32.0 22.3 66 4.7 WNW 11 19 6 10 1015.6 1015.3 0.0
25/08:30am 28.8 31.8 22.6 69 4.2 WNW 11 20 6 11 1015.8 1015.5 0.0
25/08:00am 28.8 31.2 22.3 68 4.4 NW 13 17 7 9 1015.7 1015.4 0.0
25/07:30am 28.4 31.7 23.2 73 3.6 NW 11 19 6 10 1015.4 1015.1 0.0
25/07:00am 28.2 32.3 23.2 74 3.4 WNW 7 13 4 7 1015.1 1014.8 0.0
25/06:30am 27.7 32.2 23.9 80 2.6 W 7 15 4 8 1014.8 1014.5 0.0
25/06:00am 27.0 31.2 23.4 80 2.5 WNW 7 15 4 8 1014.4 1014.1 0.0
25/05:30am 26.5 30.5 23.8 85 1.9 NW 9 17 5 9 1013.7 1013.4 0.0
25/05:00am 26.4 30.2 23.5 84 2.0 NW 9 15 5 8 1013.3 1013.0 0.0
25/04:30am 26.3 30.7 23.4 84 2.0 NW 6 11 3 6 1013.2 1012.9 0.0
25/04:00am 26.3 30.8 23.6 85 1.8 WNW 6 15 3 8 1013.0 1012.7 0.0
25/03:30am 26.2 30.7 23.7 86 1.7 WNW 6 11 3 6 1012.5 1012.2 0.0
25/03:00am 25.9 30.5 23.8 88 1.4 WNW 6 9 3 5 1012.6 1012.3 0.0
25/02:30am 25.8 30.8 23.9 89 1.3 W 4 6 2 3 1012.5 1012.2 0.0
25/02:00am 26.1 30.8 23.9 88 1.5 SW 6 9 3 5 1012.6 1012.3 0.0
25/01:30am 26.5 30.6 23.9 85 1.8 WNW 9 22 5 12 1011.6 1011.3 0.0
25/01:00am 26.5 30.6 23.9 85 1.8 WNW 9 19 5 10 1012.0 1011.7 0.0
25/12:30am 26.4 30.5 23.9 86 1.7 WNW 9 19 5 10 1012.1 1011.8 0.0
25/12:00am 26.5 30.4 24.2 87 1.6 WNW 11 24 6 13 1012.4 1012.1 0.0
 
Date/Time
WST
Temp
°C
App
Temp
°C
Dew
Point
Rel
Hum
%
Delta-T
°C
Wind Press
QNH
hPa
Press
MSL
hPa
Rain
since 9 am
mm
Dir
 
Spd
km/h
Gust
km/h
Spd
kts
Gust
kts
24/11:30pm 26.6 30.4 24.0 86 1.8 WNW 11 19 6 10 1012.6 1012.3 0.0
24/11:00pm 26.7 30.6 24.3 87 1.7 WNW 11 24 6 13 1012.7 1012.4 0.0
24/10:30pm 26.7 31.1 24.4 87 1.6 WNW 9 20 5 11 1012.9 1012.6 0.0
24/10:00pm 26.8 30.6 24.1 85 1.9 WNW 11 20 6 11 1013.0 1012.7 0.0
24/09:30pm 26.7 31.0 24.3 87 1.7 WNW 9 17 5 9 1012.9 1012.6 0.0
24/09:00pm 26.8 31.3 24.6 88 1.5 W 9 20 5 11 1012.8 1012.5 0.0
24/08:30pm 26.8 31.3 24.6 88 1.5 WNW 9 19 5 10 1012.7 1012.4 0.0
24/08:00pm 26.8 31.4 24.7 88 1.5 W 9 20 5 11 1012.4 1012.1 0.0
24/07:30pm 26.7 30.8 24.5 88 1.5 W 11 20 6 11 1012.1 1011.8 0.0
24/07:00pm 27.0 31.4 24.4 86 1.8 WNW 9 17 5 9 1012.1 1011.8 0.0
24/06:30pm 27.1 31.7 24.1 84 2.1 WNW 7 17 4 9 1011.7 1011.4 0.0
24/06:00pm 27.3 31.3 23.8 81 2.4 W 9 17 5 9 1011.6 1011.3 0.0
24/05:30pm 27.7 31.5 24.1 81 2.5 W 11 19 6 10 1011.1 1010.8 0.0
24/05:00pm 28.1 31.9 24.0 78 2.8 W 11 19 6 10 1010.9 1010.6 0.0
24/04:30pm 28.6 31.2 23.3 73 3.6 W 15 22 8 12 1010.7 1010.4 0.0
24/04:00pm 28.9 31.6 23.4 72 3.8 W 15 24 8 13 1010.8 1010.5 0.0
24/03:30pm 29.3 32.3 23.4 70 4.1 WNW 13 22 7 12 1011.0 1010.7 0.0
24/03:00pm 29.4 31.8 23.6 71 4.0 NW 17 26 9 14 1011.1 1010.8 0.0
24/02:30pm 29.7 32.8 24.1 72 3.9 NW 15 24 8 13 1011.4 1011.1 0.0
24/02:00pm 30.5 32.8 22.7 63 5.3 NW 15 22 8 12 1011.6 1011.3 0.0
24/01:30pm 29.2 31.8 23.3 70 4.1 NW 15 26 8 14 1012.1 1011.8 0.0
24/01:00pm 30.3 32.5 22.6 63 5.3 NW 15 26 8 14 1012.3 1012.0 0.0
24/12:30pm 29.7 32.1 22.3 64 5.0 NW 13 24 7 13 1012.7 1012.4 0.0
24/12:00pm 29.7 32.0 22.0 63 5.2 NNW 13 20 7 11 1013.1 1012.8 0.0
24/11:30am 30.4 32.7 22.7 63 5.3 NW 15 24 8 13 1013.0 1012.7 0.0
24/11:00am 30.3 32.4 22.4 62 5.4 NW 15 24 8 13 1013.1 1012.8 0.0
24/10:30am 30.0 33.0 22.0 62 5.4 WNW 9 19 5 10 1013.5 1013.2 0.0
24/10:00am 30.4 33.5 22.2 61 5.6 WNW 9 15 5 8 1014.0 1013.7 0.0
24/09:30am 29.1 33.0 22.9 69 4.2 WNW 7 17 4 9 1014.4 1014.1 0.0
24/09:00am 28.2 31.9 22.5 71 3.9 NW 7 13 4 7 1014.5 1014.2 -
24/08:30am 28.1 31.5 23.3 75 3.3 WNW 11 19 6 10 1014.1 1013.8 -
24/08:00am 28.5 31.4 23.1 72 3.7 NW 13 22 7 12 1013.7 1013.4 -
24/07:30am 28.2 31.0 23.0 73 3.6 NW 13 20 7 11 1013.7 1013.4 -
24/07:00am 27.7 31.6 23.6 78 2.8 NNW 9 15 5 8 1013.5 1013.2 -
24/06:30am 26.9 31.4 23.7 82 2.2 N 6 9 3 5 1013.3 1013.0 -
24/06:00am 26.6 30.9 23.7 84 2.0 NNW 7 11 4 6 1012.9 1012.6 -
24/05:30am 26.4 30.7 23.6 84 1.9 NNW 7 13 4 7 1012.4 1012.1 -
24/05:00am 26.3 30.3 23.8 86 1.7 NNW 9 15 5 8 1011.9 1011.6 -
24/04:30am 26.4 30.2 23.5 84 2.0 NNW 9 17 5 9 1011.7 1011.4 -
24/04:00am 26.4 29.5 23.6 84 1.9 NW 13 20 7 11 1011.2 1010.9 -
24/03:30am 26.3 29.5 23.7 85 1.8 NW 13 20 7 11 1010.8 1010.5 -
24/03:00am 26.1 29.3 23.7 87 1.6 NW 13 22 7 12 1010.7 1010.4 0.0
24/02:30am 26.0 29.9 23.6 86 1.6 NW 9 20 5 11 1010.8 1010.5 -
24/02:00am 25.8 29.6 24.1 90 1.2 NW 11 17 6 9 1010.9 1010.6 -
24/01:30am 24.7 29.6 23.7 94 0.7 NNW 4 7 2 4 1011.5 1011.2 -
24/01:14am 24.3 29.3 23.2 94 0.7 N 2 4 1 2 1011.7 1011.4 -
24/01:01am 25.0 30.2 24.2 95 0.6 N 4 6 2 3 1011.8 1011.5 -
24/01:00am 25.0 30.1 24.0 94 0.7 N 4 6 2 3 1011.9 1011.6 -
24/12:30am 25.1 30.2 24.0 94 0.8 N 4 6 2 3 1012.1 1011.8 -
24/12:29am 25.1 30.2 24.1 94 0.7 N 4 7 2 4 1012.1 1011.8 -
24/12:15am 25.1 29.8 24.0 94 0.8 NNW 6 7 3 4 1012.1 1011.8 -
24/12:00am 25.1 30.2 24.0 94 0.8 NNW 4 7 2 4 1012.4 1012.1 -
 
Date/Time
WST
Temp
°C
App
Temp
°C
Dew
Point
Rel
Hum
%
Delta-T
°C
Wind Press
QNH
hPa
Press
MSL
hPa
Rain
since 9 am
mm
Dir
 
Spd
km/h
Gust
km/h
Spd
kts
Gust
kts
23/11:30pm 24.8 29.8 23.9 95 0.6 N 4 7 2 4 1012.6 1012.3 -
23/11:00pm 24.1 28.5 22.8 92 0.9 NE 4 7 2 4 1013.0 1012.7 -
23/10:30pm 24.7 29.2 23.7 94 0.7 NNE 6 7 3 4 1013.2 1012.9 -
23/10:00pm 24.5 29.9 23.2 92 0.9 CALM 0 2 0 1 1013.5 1013.2 -
23/09:30pm 25.0 29.5 23.7 92 0.9 E 6 7 3 4 1014.0 1013.7 -
23/09:00pm 26.4 31.3 24.6 90 1.2 NW 7 13 4 7 1013.3 1013.0 0.0
23/08:30pm 25.8 30.9 24.0 90 1.2 N 4 7 2 4 1013.4 1013.1 -
23/08:00pm 25.6 30.8 23.6 89 1.4 W 2 7 1 4 1012.8 1012.5 -
23/07:30pm 26.6 31.2 24.2 87 1.7 NNW 7 11 4 6 1012.9 1012.6 -
23/07:00pm 26.6 31.2 24.2 87 1.7 NNW 7 15 4 8 1012.2 1011.9 -
23/06:30pm 26.6 31.2 24.1 86 1.7 N 7 13 4 7 1012.1 1011.8 -
23/06:00pm 27.1 30.9 24.1 84 2.1 NNW 11 17 6 9 1011.8 1011.5 -
23/05:30pm 27.4 30.6 24.3 83 2.1 NNW 15 22 8 12 1011.2 1010.9 -
23/05:00pm 28.1 31.1 24.0 78 2.8 NW 15 26 8 14 1010.8 1010.5 -
23/04:30pm 28.7 30.8 23.7 74 3.4 NW 19 28 10 15 1010.4 1010.1 -
23/04:00pm 29.0 31.3 23.5 72 3.8 NW 17 24 9 13 1010.5 1010.2 -
23/03:30pm 29.6 32.1 23.1 68 4.5 NW 15 22 8 12 1010.7 1010.4 -
23/03:00pm 29.3 31.8 23.2 69 4.2 NW 15 26 8 14 1011.0 1010.7 -
23/02:30pm 30.1 32.1 23.0 65 4.9 NW 17 26 9 14 1011.2 1010.9 -
23/02:00pm 29.7 32.1 23.0 67 4.6 NW 15 26 8 14 1011.4 1011.1 -
23/01:30pm 29.5 31.6 23.1 68 4.4 NW 17 26 9 14 1011.7 1011.4 -
23/01:00pm 30.1 32.0 22.7 64 5.1 NW 17 28 9 15 1011.9 1011.6 -
23/12:30pm 29.9 31.9 22.9 66 4.8 NW 17 26 9 14 1012.3 1012.0 -
23/12:00pm 30.1 32.9 23.6 68 4.5 NW 15 24 8 13 1012.6 1012.3 -
23/11:00am 30.7 32.5 21.8 59 6.0 WNW 15 22 8 12 1013.1 1012.8 -
23/10:30am 30.0 32.3 22.8 65 4.9 NW 15 24 8 13 1013.2 1012.9 -
23/10:00am 30.3 33.0 22.8 64 5.1 NW 13 22 7 12 1013.3 1013.0 -
23/09:00am 29.4 31.9 22.5 66 4.7 NW 13 20 7 11 1013.6 1013.3 0.0
23/08:30am 28.9 31.6 22.8 69 4.2 NNW 13 20 7 11 1013.7 1013.4 0.0
23/08:00am 28.4 30.9 22.5 70 4.0 NNW 13 22 7 12 1013.8 1013.5 0.0
23/07:30am 28.2 31.3 23.6 76 3.2 NNW 13 20 7 11 1013.5 1013.2 0.0
23/07:00am 27.7 31.1 23.3 77 3.0 WNW 11 20 6 11 1012.8 1012.5 0.0

Other Formats:

Comma delimited format used in spreadsheet applications
http://www.bom.gov.au/fwo/IDW60801/IDW60801.99206.axf

JavaScript Object Notation format (JSON) in row-major order
http://www.bom.gov.au/fwo/IDW60801/IDW60801.99206.json